Littleport, United Kingdom
Current Conditions -  °F | °C
As of 11:58 AM on Monday 26 Jan 2015 (Local Time) from EGUN Reporting Station
Clear Clear  
Wind Chill:   Ceiling: Unl
Heat Index:   Visibility: 6mi
Dew Point:   Wind: 16mph
Humidity: 66%   Direction: 310°NW
Pressure: 30.16"   Gusts: 24mph
Location:  52.46°N, 0.31°E
Report Text: EGUN 261158Z AUTO 31014G21KT 9999 CLR 08/02 A3016 RMK AO2 PK WND 32031/10 SLP217 60002 70002 T00830023 10096 20080 52012
Loading
Personal Weather Stations






























Interactive Weather Map New forecast layout! Learn more

10-Day Weather Forecast

Advertisements
Track Severe Weather on mobile